sensor_id;sensor_type;location;lat;lon;timestamp;P1;durP1;ratioP1;P2;durP2;ratioP2
5133;SDS011;2585;48.696;10.066;2023-04-07T00:01:23;11.18;;;6.35;;
5133;SDS011;2585;48.696;10.066;2023-04-07T00:03:50;12.13;;;6.03;;
5133;SDS011;2585;48.696;10.066;2023-04-07T00:06:17;8.52;;;5.63;;
5133;SDS011;2585;48.696;10.066;2023-04-07T00:08:44;7.85;;;5.00;;
5133;SDS011;2585;48.696;10.066;2023-04-07T00:11:11;9.05;;;5.10;;
5133;SDS011;2585;48.696;10.066;2023-04-07T00:13:38;7.50;;;4.60;;
5133;SDS011;2585;48.696;10.066;2023-04-07T00:16:04;9.07;;;4.57;;
5133;SDS011;2585;48.696;10.066;2023-04-07T00:18:31;5.10;;;4.00;;
5133;SDS011;2585;48.696;10.066;2023-04-07T00:20:58;5.43;;;3.85;;
5133;SDS011;2585;48.696;10.066;2023-04-07T00:23:25;8.27;;;4.50;;
5133;SDS011;2585;48.696;10.066;2023-04-07T00:25:52;5.53;;;4.15;;
5133;SDS011;2585;48.696;10.066;2023-04-07T00:28:19;6.45;;;4.15;;
5133;SDS011;2585;48.696;10.066;2023-04-07T00:30:45;9.00;;;4.53;;
5133;SDS011;2585;48.696;10.066;2023-04-07T00:33:12;9.07;;;4.30;;
5133;SDS011;2585;48.696;10.066;2023-04-07T00:35:39;7.10;;;4.55;;
5133;SDS011;2585;48.696;10.066;2023-04-07T00:38:06;5.57;;;3.95;;
5133;SDS011;2585;48.696;10.066;2023-04-07T00:40:33;6.68;;;4.43;;
5133;SDS011;2585;48.696;10.066;2023-04-07T00:42:59;5.78;;;4.53;;
5133;SDS011;2585;48.696;10.066;2023-04-07T00:45:26;7.15;;;4.28;;
5133;SDS011;2585;48.696;10.066;2023-04-07T00:47:53;10.15;;;4.55;;
5133;SDS011;2585;48.696;10.066;2023-04-07T00:50:25;9.50;;;4.20;;
5133;SDS011;2585;48.696;10.066;2023-04-07T00:52:52;7.10;;;4.65;;
5133;SDS011;2585;48.696;10.066;2023-04-07T00:55:20;8.13;;;5.45;;
5133;SDS011;2585;48.696;10.066;2023-04-07T00:57:46;7.22;;;5.40;;
5133;SDS011;2585;48.696;10.066;2023-04-07T01:00:13;6.35;;;4.28;;
5133;SDS011;2585;48.696;10.066;2023-04-07T01:02:42;6.90;;;4.78;;
5133;SDS011;2585;48.696;10.066;2023-04-07T01:05:16;7.78;;;4.55;;
5133;SDS011;2585;48.696;10.066;2023-04-07T01:07:54;6.60;;;4.72;;
5133;SDS011;2585;48.696;10.066;2023-04-07T01:13:37;7.22;;;4.97;;
5133;SDS011;2585;48.696;10.066;2023-04-07T01:16:08;7.00;;;5.03;;
5133;SDS011;2585;48.696;10.066;2023-04-07T01:18:38;6.60;;;4.43;;
5133;SDS011;2585;48.696;10.066;2023-04-07T01:21:06;7.90;;;4.90;;
5133;SDS011;2585;48.696;10.066;2023-04-07T01:23:51;6.95;;;4.85;;
5133;SDS011;2585;48.696;10.066;2023-04-07T01:26:36;8.32;;;5.07;;
5133;SDS011;2585;48.696;10.066;2023-04-07T01:31:57;7.03;;;4.57;;
5133;SDS011;2585;48.696;10.066;2023-04-07T01:34:26;5.35;;;3.90;;
5133;SDS011;2585;48.696;10.066;2023-04-07T01:36:56;7.32;;;4.75;;
5133;SDS011;2585;48.696;10.066;2023-04-07T01:39:27;7.18;;;5.32;;
5133;SDS011;2585;48.696;10.066;2023-04-07T01:41:54;8.57;;;5.90;;
5133;SDS011;2585;48.696;10.066;2023-04-07T01:44:22;7.07;;;4.82;;
5133;SDS011;2585;48.696;10.066;2023-04-07T01:46:51;9.65;;;5.82;;
5133;SDS011;2585;48.696;10.066;2023-04-07T01:49:19;8.55;;;4.55;;
5133;SDS011;2585;48.696;10.066;2023-04-07T01:51:46;8.93;;;5.45;;
5133;SDS011;2585;48.696;10.066;2023-04-07T01:54:17;6.07;;;4.72;;
5133;SDS011;2585;48.696;10.066;2023-04-07T01:56:43;8.10;;;5.10;;
5133;SDS011;2585;48.696;10.066;2023-04-07T01:59:11;6.80;;;5.35;;
5133;SDS011;2585;48.696;10.066;2023-04-07T02:01:38;7.80;;;5.60;;
5133;SDS011;2585;48.696;10.066;2023-04-07T02:04:14;8.60;;;5.10;;
5133;SDS011;2585;48.696;10.066;2023-04-07T02:06:52;7.78;;;5.63;;
5133;SDS011;2585;48.696;10.066;2023-04-07T02:09:22;8.02;;;5.38;;
5133;SDS011;2585;48.696;10.066;2023-04-07T02:11:51;9.93;;;5.57;;
5133;SDS011;2585;48.696;10.066;2023-04-07T02:14:20;8.70;;;5.50;;
5133;SDS011;2585;48.696;10.066;2023-04-07T02:16:49;7.00;;;4.88;;
5133;SDS011;2585;48.696;10.066;2023-04-07T02:19:18;9.13;;;5.88;;
5133;SDS011;2585;48.696;10.066;2023-04-07T02:21:45;8.27;;;5.93;;
5133;SDS011;2585;48.696;10.066;2023-04-07T02:24:13;7.22;;;4.88;;
5133;SDS011;2585;48.696;10.066;2023-04-07T02:26:44;9.95;;;5.35;;
5133;SDS011;2585;48.696;10.066;2023-04-07T02:29:11;8.18;;;5.57;;
5133;SDS011;2585;48.696;10.066;2023-04-07T02:31:38;7.60;;;4.88;;
5133;SDS011;2585;48.696;10.066;2023-04-07T02:34:05;8.82;;;5.88;;
5133;SDS011;2585;48.696;10.066;2023-04-07T02:36:31;8.85;;;5.90;;
5133;SDS011;2585;48.696;10.066;2023-04-07T02:38:58;10.98;;;7.20;;
5133;SDS011;2585;48.696;10.066;2023-04-07T02:41:25;10.27;;;6.97;;
5133;SDS011;2585;48.696;10.066;2023-04-07T02:43:52;11.07;;;6.88;;
5133;SDS011;2585;48.696;10.066;2023-04-07T02:46:19;12.50;;;6.90;;
5133;SDS011;2585;48.696;10.066;2023-04-07T02:48:46;7.90;;;6.13;;
5133;SDS011;2585;48.696;10.066;2023-04-07T02:51:13;9.27;;;6.53;;
5133;SDS011;2585;48.696;10.066;2023-04-07T02:53:40;10.60;;;7.20;;
5133;SDS011;2585;48.696;10.066;2023-04-07T02:56:07;10.68;;;6.95;;
5133;SDS011;2585;48.696;10.066;2023-04-07T02:58:33;12.43;;;6.60;;
5133;SDS011;2585;48.696;10.066;2023-04-07T03:01:00;9.32;;;6.75;;
5133;SDS011;2585;48.696;10.066;2023-04-07T03:03:27;10.75;;;6.72;;
5133;SDS011;2585;48.696;10.066;2023-04-07T03:05:54;14.32;;;7.15;;
5133;SDS011;2585;48.696;10.066;2023-04-07T03:08:21;8.82;;;6.45;;
5133;SDS011;2585;48.696;10.066;2023-04-07T03:10:48;10.23;;;7.38;;
5133;SDS011;2585;48.696;10.066;2023-04-07T03:13:15;11.50;;;6.95;;
5133;SDS011;2585;48.696;10.066;2023-04-07T03:15:44;13.02;;;7.60;;
5133;SDS011;2585;48.696;10.066;2023-04-07T03:18:11;10.02;;;6.68;;
5133;SDS011;2585;48.696;10.066;2023-04-07T03:20:38;12.07;;;6.50;;
5133;SDS011;2585;48.696;10.066;2023-04-07T03:23:07;11.35;;;7.30;;
5133;SDS011;2585;48.696;10.066;2023-04-07T03:25:34;11.90;;;7.63;;
5133;SDS011;2585;48.696;10.066;2023-04-07T03:28:00;11.73;;;7.78;;
5133;SDS011;2585;48.696;10.066;2023-04-07T03:30:27;9.57;;;6.90;;
5133;SDS011;2585;48.696;10.066;2023-04-07T03:32:54;10.05;;;6.75;;
5133;SDS011;2585;48.696;10.066;2023-04-07T03:35:21;13.35;;;7.38;;
5133;SDS011;2585;48.696;10.066;2023-04-07T03:37:48;10.13;;;7.05;;
5133;SDS011;2585;48.696;10.066;2023-04-07T03:40:14;11.70;;;7.78;;
5133;SDS011;2585;48.696;10.066;2023-04-07T03:42:41;10.30;;;7.03;;
5133;SDS011;2585;48.696;10.066;2023-04-07T03:45:08;11.48;;;8.10;;
5133;SDS011;2585;48.696;10.066;2023-04-07T03:47:35;14.23;;;8.68;;
5133;SDS011;2585;48.696;10.066;2023-04-07T03:50:02;13.80;;;9.30;;
5133;SDS011;2585;48.696;10.066;2023-04-07T03:52:29;11.95;;;7.95;;
5133;SDS011;2585;48.696;10.066;2023-04-07T03:54:56;12.90;;;8.05;;
5133;SDS011;2585;48.696;10.066;2023-04-07T03:57:23;13.23;;;8.20;;
5133;SDS011;2585;48.696;10.066;2023-04-07T03:59:50;16.30;;;9.60;;
5133;SDS011;2585;48.696;10.066;2023-04-07T04:02:17;14.00;;;9.32;;
5133;SDS011;2585;48.696;10.066;2023-04-07T04:04:44;13.07;;;8.40;;
5133;SDS011;2585;48.696;10.066;2023-04-07T04:07:11;12.35;;;8.00;;
5133;SDS011;2585;48.696;10.066;2023-04-07T04:09:38;14.70;;;8.90;;
5133;SDS011;2585;48.696;10.066;2023-04-07T04:12:05;16.02;;;7.90;;
5133;SDS011;2585;48.696;10.066;2023-04-07T04:14:32;16.95;;;9.75;;
5133;SDS011;2585;48.696;10.066;2023-04-07T04:16:58;15.43;;;8.70;;
5133;SDS011;2585;48.696;10.066;2023-04-07T04:19:25;14.77;;;8.82;;
5133;SDS011;2585;48.696;10.066;2023-04-07T04:21:52;12.00;;;8.70;;
5133;SDS011;2585;48.696;10.066;2023-04-07T04:24:19;15.65;;;9.57;;
5133;SDS011;2585;48.696;10.066;2023-04-07T04:26:46;13.18;;;8.00;;
5133;SDS011;2585;48.696;10.066;2023-04-07T04:29:12;15.20;;;9.45;;
5133;SDS011;2585;48.696;10.066;2023-04-07T04:31:39;12.30;;;8.40;;
5133;SDS011;2585;48.696;10.066;2023-04-07T04:34:06;16.20;;;9.95;;
5133;SDS011;2585;48.696;10.066;2023-04-07T04:36:33;17.40;;;9.77;;
5133;SDS011;2585;48.696;10.066;2023-04-07T04:39:01;17.17;;;9.70;;
5133;SDS011;2585;48.696;10.066;2023-04-07T04:41:28;16.00;;;10.65;;
5133;SDS011;2585;48.696;10.066;2023-04-07T04:43:55;16.85;;;10.32;;
5133;SDS011;2585;48.696;10.066;2023-04-07T04:46:21;17.80;;;11.25;;
5133;SDS011;2585;48.696;10.066;2023-04-07T04:48:50;24.48;;;11.80;;
5133;SDS011;2585;48.696;10.066;2023-04-07T04:51:17;16.35;;;10.30;;
5133;SDS011;2585;48.696;10.066;2023-04-07T04:53:44;15.40;;;9.80;;
5133;SDS011;2585;48.696;10.066;2023-04-07T04:56:11;16.27;;;10.43;;
5133;SDS011;2585;48.696;10.066;2023-04-07T04:58:38;16.27;;;10.30;;
5133;SDS011;2585;48.696;10.066;2023-04-07T05:01:12;22.27;;;10.57;;
5133;SDS011;2585;48.696;10.066;2023-04-07T05:03:39;22.80;;;11.75;;
5133;SDS011;2585;48.696;10.066;2023-04-07T05:06:06;21.02;;;11.70;;
5133;SDS011;2585;48.696;10.066;2023-04-07T05:08:33;15.63;;;10.32;;
5133;SDS011;2585;48.696;10.066;2023-04-07T05:10:59;18.35;;;11.25;;
5133;SDS011;2585;48.696;10.066;2023-04-07T05:13:26;18.35;;;12.27;;
5133;SDS011;2585;48.696;10.066;2023-04-07T05:15:55;21.57;;;12.10;;
5133;SDS011;2585;48.696;10.066;2023-04-07T05:18:22;21.13;;;12.88;;
5133;SDS011;2585;48.696;10.066;2023-04-07T05:20:49;21.48;;;12.63;;
5133;SDS011;2585;48.696;10.066;2023-04-07T05:23:16;18.80;;;11.43;;
5133;SDS011;2585;48.696;10.066;2023-04-07T05:25:43;19.92;;;12.93;;
5133;SDS011;2585;48.696;10.066;2023-04-07T05:28:10;19.88;;;12.63;;
5133;SDS011;2585;48.696;10.066;2023-04-07T05:30:36;22.88;;;12.65;;
5133;SDS011;2585;48.696;10.066;2023-04-07T05:33:03;24.98;;;13.32;;
5133;SDS011;2585;48.696;10.066;2023-04-07T05:35:30;20.65;;;12.70;;
5133;SDS011;2585;48.696;10.066;2023-04-07T05:37:57;21.02;;;13.98;;
5133;SDS011;2585;48.696;10.066;2023-04-07T05:40:24;23.45;;;13.15;;
5133;SDS011;2585;48.696;10.066;2023-04-07T05:42:51;23.80;;;14.07;;
5133;SDS011;2585;48.696;10.066;2023-04-07T05:45:17;25.52;;;13.80;;
5133;SDS011;2585;48.696;10.066;2023-04-07T05:47:44;21.40;;;12.93;;
5133;SDS011;2585;48.696;10.066;2023-04-07T05:50:15;22.40;;;12.90;;
5133;SDS011;2585;48.696;10.066;2023-04-07T05:52:43;24.05;;;13.85;;
5133;SDS011;2585;48.696;10.066;2023-04-07T05:55:09;23.08;;;12.88;;
5133;SDS011;2585;48.696;10.066;2023-04-07T05:57:36;20.05;;;12.00;;
5133;SDS011;2585;48.696;10.066;2023-04-07T06:00:03;22.95;;;13.18;;
5133;SDS011;2585;48.696;10.066;2023-04-07T06:02:31;30.50;;;14.50;;
5133;SDS011;2585;48.696;10.066;2023-04-07T06:04:58;21.27;;;12.88;;
5133;SDS011;2585;48.696;10.066;2023-04-07T06:07:25;23.23;;;13.77;;
5133;SDS011;2585;48.696;10.066;2023-04-07T06:09:51;21.95;;;14.90;;
5133;SDS011;2585;48.696;10.066;2023-04-07T06:12:18;22.55;;;13.00;;
5133;SDS011;2585;48.696;10.066;2023-04-07T06:14:46;21.63;;;13.20;;
5133;SDS011;2585;48.696;10.066;2023-04-07T06:17:18;26.88;;;15.82;;
5133;SDS011;2585;48.696;10.066;2023-04-07T06:19:45;22.05;;;15.25;;
5133;SDS011;2585;48.696;10.066;2023-04-07T06:22:11;22.85;;;14.35;;
5133;SDS011;2585;48.696;10.066;2023-04-07T06:24:38;22.17;;;13.05;;
5133;SDS011;2585;48.696;10.066;2023-04-07T06:27:05;21.50;;;14.43;;
5133;SDS011;2585;48.696;10.066;2023-04-07T06:29:32;23.70;;;13.37;;
5133;SDS011;2585;48.696;10.066;2023-04-07T06:31:59;23.50;;;13.18;;
5133;SDS011;2585;48.696;10.066;2023-04-07T06:34:27;24.60;;;15.30;;
5133;SDS011;2585;48.696;10.066;2023-04-07T06:36:54;24.50;;;13.97;;
5133;SDS011;2585;48.696;10.066;2023-04-07T06:39:25;25.55;;;13.48;;
5133;SDS011;2585;48.696;10.066;2023-04-07T06:41:52;18.40;;;12.20;;
5133;SDS011;2585;48.696;10.066;2023-04-07T06:44:19;22.70;;;11.97;;
5133;SDS011;2585;48.696;10.066;2023-04-07T06:46:46;20.87;;;13.10;;
5133;SDS011;2585;48.696;10.066;2023-04-07T06:49:15;21.10;;;13.80;;
5133;SDS011;2585;48.696;10.066;2023-04-07T06:51:42;26.60;;;12.80;;
5133;SDS011;2585;48.696;10.066;2023-04-07T06:54:09;22.17;;;13.82;;
5133;SDS011;2585;48.696;10.066;2023-04-07T06:56:42;22.70;;;14.85;;
5133;SDS011;2585;48.696;10.066;2023-04-07T06:59:09;21.77;;;13.57;;
5133;SDS011;2585;48.696;10.066;2023-04-07T07:01:36;18.37;;;12.53;;
5133;SDS011;2585;48.696;10.066;2023-04-07T07:04:03;20.77;;;12.93;;
5133;SDS011;2585;48.696;10.066;2023-04-07T07:06:33;19.20;;;12.80;;
5133;SDS011;2585;48.696;10.066;2023-04-07T07:09:00;18.90;;;11.53;;
5133;SDS011;2585;48.696;10.066;2023-04-07T07:11:28;19.20;;;12.03;;
5133;SDS011;2585;48.696;10.066;2023-04-07T07:13:55;20.33;;;12.87;;
5133;SDS011;2585;48.696;10.066;2023-04-07T07:16:21;24.10;;;12.97;;
5133;SDS011;2585;48.696;10.066;2023-04-07T07:18:51;19.17;;;12.52;;
5133;SDS011;2585;48.696;10.066;2023-04-07T07:21:18;20.10;;;12.60;;
5133;SDS011;2585;48.696;10.066;2023-04-07T07:23:45;24.07;;;12.77;;
5133;SDS011;2585;48.696;10.066;2023-04-07T07:26:12;21.50;;;12.67;;
5133;SDS011;2585;48.696;10.066;2023-04-07T07:28:39;20.70;;;13.27;;
5133;SDS011;2585;48.696;10.066;2023-04-07T07:31:09;19.20;;;12.20;;
5133;SDS011;2585;48.696;10.066;2023-04-07T07:33:39;20.40;;;12.60;;
5133;SDS011;2585;48.696;10.066;2023-04-07T07:36:06;17.90;;;12.27;;
5133;SDS011;2585;48.696;10.066;2023-04-07T07:38:33;20.93;;;13.03;;
5133;SDS011;2585;48.696;10.066;2023-04-07T07:41:02;22.83;;;13.77;;
5133;SDS011;2585;48.696;10.066;2023-04-07T07:43:29;22.23;;;13.20;;
5133;SDS011;2585;48.696;10.066;2023-04-07T07:45:56;20.73;;;13.20;;
5133;SDS011;2585;48.696;10.066;2023-04-07T07:48:23;21.17;;;14.43;;
5133;SDS011;2585;48.696;10.066;2023-04-07T07:50:50;26.00;;;15.20;;
5133;SDS011;2585;48.696;10.066;2023-04-07T07:53:17;20.17;;;11.87;;
5133;SDS011;2585;48.696;10.066;2023-04-07T07:55:44;18.03;;;11.57;;
5133;SDS011;2585;48.696;10.066;2023-04-07T07:58:12;18.73;;;12.50;;
5133;SDS011;2585;48.696;10.066;2023-04-07T08:00:39;18.50;;;12.80;;
5133;SDS011;2585;48.696;10.066;2023-04-07T08:03:06;19.23;;;12.27;;
5133;SDS011;2585;48.696;10.066;2023-04-07T08:05:33;16.77;;;11.90;;
5133;SDS011;2585;48.696;10.066;2023-04-07T08:08:00;19.60;;;11.93;;
5133;SDS011;2585;48.696;10.066;2023-04-07T08:10:28;15.67;;;11.23;;
5133;SDS011;2585;48.696;10.066;2023-04-07T08:12:55;17.87;;;12.40;;
5133;SDS011;2585;48.696;10.066;2023-04-07T08:15:21;17.07;;;11.63;;
5133;SDS011;2585;48.696;10.066;2023-04-07T08:17:48;21.60;;;11.07;;
5133;SDS011;2585;48.696;10.066;2023-04-07T08:20:15;18.63;;;11.93;;
5133;SDS011;2585;48.696;10.066;2023-04-07T08:22:42;17.73;;;12.77;;
5133;SDS011;2585;48.696;10.066;2023-04-07T08:25:09;17.20;;;11.03;;
5133;SDS011;2585;48.696;10.066;2023-04-07T08:27:36;16.50;;;11.87;;
5133;SDS011;2585;48.696;10.066;2023-04-07T08:30:03;18.00;;;11.33;;
5133;SDS011;2585;48.696;10.066;2023-04-07T08:32:38;16.13;;;11.07;;
5133;SDS011;2585;48.696;10.066;2023-04-07T08:35:10;17.60;;;11.70;;
5133;SDS011;2585;48.696;10.066;2023-04-07T08:37:37;16.23;;;11.17;;
5133;SDS011;2585;48.696;10.066;2023-04-07T08:40:05;16.27;;;10.83;;
5133;SDS011;2585;48.696;10.066;2023-04-07T08:42:33;15.90;;;11.13;;
5133;SDS011;2585;48.696;10.066;2023-04-07T08:45:04;14.63;;;8.77;;
5133;SDS011;2585;48.696;10.066;2023-04-07T08:47:32;14.03;;;10.10;;
5133;SDS011;2585;48.696;10.066;2023-04-07T08:50:02;10.80;;;9.47;;
5133;SDS011;2585;48.696;10.066;2023-04-07T08:52:34;15.03;;;10.13;;
5133;SDS011;2585;48.696;10.066;2023-04-07T08:55:13;13.47;;;9.33;;
5133;SDS011;2585;48.696;10.066;2023-04-07T08:57:41;12.80;;;8.97;;
5133;SDS011;2585;48.696;10.066;2023-04-07T09:00:09;14.67;;;9.53;;
5133;SDS011;2585;48.696;10.066;2023-04-07T09:02:39;12.40;;;9.73;;
5133;SDS011;2585;48.696;10.066;2023-04-07T09:05:09;14.47;;;9.73;;
5133;SDS011;2585;48.696;10.066;2023-04-07T09:07:37;13.43;;;10.00;;
5133;SDS011;2585;48.696;10.066;2023-04-07T09:10:08;14.63;;;10.33;;
5133;SDS011;2585;48.696;10.066;2023-04-07T09:12:36;16.70;;;10.13;;
5133;SDS011;2585;48.696;10.066;2023-04-07T09:15:07;15.60;;;10.47;;
5133;SDS011;2585;48.696;10.066;2023-04-07T09:17:34;14.97;;;10.50;;
5133;SDS011;2585;48.696;10.066;2023-04-07T09:20:01;12.20;;;9.67;;
5133;SDS011;2585;48.696;10.066;2023-04-07T09:22:38;16.40;;;10.00;;
5133;SDS011;2585;48.696;10.066;2023-04-07T09:27:53;15.23;;;10.40;;
5133;SDS011;2585;48.696;10.066;2023-04-07T09:30:24;12.50;;;8.63;;
5133;SDS011;2585;48.696;10.066;2023-04-07T09:32:51;13.60;;;8.57;;
5133;SDS011;2585;48.696;10.066;2023-04-07T09:35:18;10.17;;;7.63;;
5133;SDS011;2585;48.696;10.066;2023-04-07T09:38:01;8.13;;;5.60;;
5133;SDS011;2585;48.696;10.066;2023-04-07T09:40:35;7.50;;;6.10;;
5133;SDS011;2585;48.696;10.066;2023-04-07T09:43:05;13.63;;;7.10;;
5133;SDS011;2585;48.696;10.066;2023-04-07T09:45:32;11.30;;;7.17;;
5133;SDS011;2585;48.696;10.066;2023-04-07T09:48:06;8.90;;;6.87;;
5133;SDS011;2585;48.696;10.066;2023-04-07T09:50:35;13.30;;;8.10;;
5133;SDS011;2585;48.696;10.066;2023-04-07T09:53:04;8.27;;;5.60;;
5133;SDS011;2585;48.696;10.066;2023-04-07T09:55:32;8.57;;;6.60;;
5133;SDS011;2585;48.696;10.066;2023-04-07T09:58:00;6.83;;;5.80;;
5133;SDS011;2585;48.696;10.066;2023-04-07T10:00:29;9.27;;;6.00;;
5133;SDS011;2585;48.696;10.066;2023-04-07T10:02:56;9.00;;;6.20;;
5133;SDS011;2585;48.696;10.066;2023-04-07T10:05:24;8.40;;;5.20;;
5133;SDS011;2585;48.696;10.066;2023-04-07T10:07:51;5.97;;;4.37;;
5133;SDS011;2585;48.696;10.066;2023-04-07T10:10:18;4.80;;;4.00;;
5133;SDS011;2585;48.696;10.066;2023-04-07T10:12:45;6.47;;;5.07;;
5133;SDS011;2585;48.696;10.066;2023-04-07T10:15:15;7.77;;;4.40;;
5133;SDS011;2585;48.696;10.066;2023-04-07T10:17:45;8.93;;;4.10;;
5133;SDS011;2585;48.696;10.066;2023-04-07T10:20:17;5.80;;;3.27;;
5133;SDS011;2585;48.696;10.066;2023-04-07T10:22:47;6.40;;;4.43;;
5133;SDS011;2585;48.696;10.066;2023-04-07T10:25:17;5.97;;;4.00;;
5133;SDS011;2585;48.696;10.066;2023-04-07T10:27:54;4.20;;;2.70;;
5133;SDS011;2585;48.696;10.066;2023-04-07T10:30:25;4.40;;;3.27;;
5133;SDS011;2585;48.696;10.066;2023-04-07T10:32:54;6.20;;;4.80;;
5133;SDS011;2585;48.696;10.066;2023-04-07T10:35:21;10.07;;;7.37;;
5133;SDS011;2585;48.696;10.066;2023-04-07T10:40:36;5.07;;;4.00;;
5133;SDS011;2585;48.696;10.066;2023-04-07T10:43:03;8.67;;;5.20;;
5133;SDS011;2585;48.696;10.066;2023-04-07T10:48:14;3.73;;;2.63;;
5133;SDS011;2585;48.696;10.066;2023-04-07T10:50:43;4.37;;;2.90;;
5133;SDS011;2585;48.696;10.066;2023-04-07T10:53:11;2.80;;;2.00;;
5133;SDS011;2585;48.696;10.066;2023-04-07T10:55:39;2.97;;;2.40;;
5133;SDS011;2585;48.696;10.066;2023-04-07T11:03:30;2.93;;;2.60;;
5133;SDS011;2585;48.696;10.066;2023-04-07T11:06:05;4.27;;;2.80;;
5133;SDS011;2585;48.696;10.066;2023-04-07T11:08:39;4.20;;;2.80;;
5133;SDS011;2585;48.696;10.066;2023-04-07T11:11:09;3.90;;;3.10;;
5133;SDS011;2585;48.696;10.066;2023-04-07T11:13:40;9.07;;;3.30;;
5133;SDS011;2585;48.696;10.066;2023-04-07T11:16:07;4.97;;;3.10;;
5133;SDS011;2585;48.696;10.066;2023-04-07T11:18:35;7.73;;;3.50;;
5133;SDS011;2585;48.696;10.066;2023-04-07T11:21:02;5.20;;;3.20;;
5133;SDS011;2585;48.696;10.066;2023-04-07T11:23:43;4.50;;;3.57;;
5133;SDS011;2585;48.696;10.066;2023-04-07T11:26:12;8.03;;;5.03;;
5133;SDS011;2585;48.696;10.066;2023-04-07T11:28:46;7.70;;;4.43;;
5133;SDS011;2585;48.696;10.066;2023-04-07T11:31:21;10.53;;;5.97;;
5133;SDS011;2585;48.696;10.066;2023-04-07T11:33:52;8.03;;;4.30;;
5133;SDS011;2585;48.696;10.066;2023-04-07T11:38:58;4.43;;;3.90;;
5133;SDS011;2585;48.696;10.066;2023-04-07T11:41:27;4.57;;;4.07;;
5133;SDS011;2585;48.696;10.066;2023-04-07T11:46:33;6.73;;;3.57;;
5133;SDS011;2585;48.696;10.066;2023-04-07T11:49:10;6.07;;;3.50;;
5133;SDS011;2585;48.696;10.066;2023-04-07T11:51:38;9.13;;;4.00;;
5133;SDS011;2585;48.696;10.066;2023-04-07T11:54:06;6.17;;;3.63;;
5133;SDS011;2585;48.696;10.066;2023-04-07T11:56:43;5.17;;;4.00;;
5133;SDS011;2585;48.696;10.066;2023-04-07T11:59:17;6.80;;;3.63;;
5133;SDS011;2585;48.696;10.066;2023-04-07T12:01:51;5.77;;;3.13;;
5133;SDS011;2585;48.696;10.066;2023-04-07T12:04:22;8.70;;;3.70;;
5133;SDS011;2585;48.696;10.066;2023-04-07T12:06:49;6.03;;;4.00;;
5133;SDS011;2585;48.696;10.066;2023-04-07T12:09:50;7.50;;;4.20;;
5133;SDS011;2585;48.696;10.066;2023-04-07T12:12:09;5.33;;;4.20;;
5133;SDS011;2585;48.696;10.066;2023-04-07T12:14:36;39.53;;;23.17;;
5133;SDS011;2585;48.696;10.066;2023-04-07T12:17:03;7.70;;;4.33;;
5133;SDS011;2585;48.696;10.066;2023-04-07T12:19:31;9.17;;;5.43;;
5133;SDS011;2585;48.696;10.066;2023-04-07T12:22:00;8.30;;;5.10;;
5133;SDS011;2585;48.696;10.066;2023-04-07T12:24:26;9.47;;;5.63;;
5133;SDS011;2585;48.696;10.066;2023-04-07T12:26:53;10.83;;;4.40;;
5133;SDS011;2585;48.696;10.066;2023-04-07T12:29:21;4.33;;;3.27;;
5133;SDS011;2585;48.696;10.066;2023-04-07T12:31:48;16.60;;;10.47;;
5133;SDS011;2585;48.696;10.066;2023-04-07T12:34:16;9.30;;;5.27;;
5133;SDS011;2585;48.696;10.066;2023-04-07T12:36:43;6.23;;;3.70;;
5133;SDS011;2585;48.696;10.066;2023-04-07T12:39:10;7.03;;;4.50;;
5133;SDS011;2585;48.696;10.066;2023-04-07T12:41:37;6.10;;;3.10;;
5133;SDS011;2585;48.696;10.066;2023-04-07T12:44:04;7.00;;;4.67;;
5133;SDS011;2585;48.696;10.066;2023-04-07T12:46:31;5.07;;;2.80;;
5133;SDS011;2585;48.696;10.066;2023-04-07T12:48:58;5.27;;;3.20;;
5133;SDS011;2585;48.696;10.066;2023-04-07T12:51:26;4.83;;;3.43;;
5133;SDS011;2585;48.696;10.066;2023-04-07T12:53:53;5.03;;;2.80;;
5133;SDS011;2585;48.696;10.066;2023-04-07T12:56:20;6.13;;;2.90;;
5133;SDS011;2585;48.696;10.066;2023-04-07T12:58:47;3.23;;;2.30;;
5133;SDS011;2585;48.696;10.066;2023-04-07T13:01:14;5.53;;;2.93;;
5133;SDS011;2585;48.696;10.066;2023-04-07T13:03:42;5.27;;;2.83;;
5133;SDS011;2585;48.696;10.066;2023-04-07T13:06:09;5.83;;;2.90;;
5133;SDS011;2585;48.696;10.066;2023-04-07T13:08:37;5.27;;;2.57;;
5133;SDS011;2585;48.696;10.066;2023-04-07T13:11:04;4.40;;;3.20;;
5133;SDS011;2585;48.696;10.066;2023-04-07T13:13:31;5.90;;;2.97;;
5133;SDS011;2585;48.696;10.066;2023-04-07T13:15:59;4.23;;;3.13;;
5133;SDS011;2585;48.696;10.066;2023-04-07T13:18:26;6.83;;;3.10;;
5133;SDS011;2585;48.696;10.066;2023-04-07T13:20:53;5.93;;;2.90;;
5133;SDS011;2585;48.696;10.066;2023-04-07T13:23:39;3.57;;;2.57;;
5133;SDS011;2585;48.696;10.066;2023-04-07T13:26:09;5.03;;;3.20;;
5133;SDS011;2585;48.696;10.066;2023-04-07T13:28:36;4.63;;;2.80;;
5133;SDS011;2585;48.696;10.066;2023-04-07T13:31:04;4.57;;;3.17;;
5133;SDS011;2585;48.696;10.066;2023-04-07T13:33:31;5.63;;;3.00;;
5133;SDS011;2585;48.696;10.066;2023-04-07T13:35:57;5.90;;;3.60;;
5133;SDS011;2585;48.696;10.066;2023-04-07T13:38:24;5.30;;;3.10;;
5133;SDS011;2585;48.696;10.066;2023-04-07T13:40:51;4.63;;;2.50;;
5133;SDS011;2585;48.696;10.066;2023-04-07T13:43:18;10.23;;;3.00;;
5133;SDS011;2585;48.696;10.066;2023-04-07T13:45:45;4.57;;;2.50;;
5133;SDS011;2585;48.696;10.066;2023-04-07T13:48:12;4.70;;;2.43;;
5133;SDS011;2585;48.696;10.066;2023-04-07T13:50:39;5.57;;;2.50;;
5133;SDS011;2585;48.696;10.066;2023-04-07T13:53:06;3.67;;;2.67;;
5133;SDS011;2585;48.696;10.066;2023-04-07T13:55:33;5.97;;;3.07;;
5133;SDS011;2585;48.696;10.066;2023-04-07T13:58:00;5.67;;;2.70;;
5133;SDS011;2585;48.696;10.066;2023-04-07T14:00:27;5.27;;;2.70;;
5133;SDS011;2585;48.696;10.066;2023-04-07T14:02:53;3.73;;;2.80;;
5133;SDS011;2585;48.696;10.066;2023-04-07T14:05:24;7.70;;;3.70;;
5133;SDS011;2585;48.696;10.066;2023-04-07T14:07:50;4.57;;;2.63;;
5133;SDS011;2585;48.696;10.066;2023-04-07T14:10:17;6.00;;;2.70;;
5133;SDS011;2585;48.696;10.066;2023-04-07T14:12:44;15.10;;;6.00;;
5133;SDS011;2585;48.696;10.066;2023-04-07T14:15:11;8.30;;;4.80;;
5133;SDS011;2585;48.696;10.066;2023-04-07T14:17:38;7.60;;;3.67;;
5133;SDS011;2585;48.696;10.066;2023-04-07T14:20:05;7.37;;;2.87;;
5133;SDS011;2585;48.696;10.066;2023-04-07T14:22:32;6.90;;;2.53;;
5133;SDS011;2585;48.696;10.066;2023-04-07T14:24:59;5.13;;;3.57;;
5133;SDS011;2585;48.696;10.066;2023-04-07T14:27:26;5.17;;;2.30;;
5133;SDS011;2585;48.696;10.066;2023-04-07T14:29:56;3.93;;;2.10;;
5133;SDS011;2585;48.696;10.066;2023-04-07T14:32:25;2.30;;;2.10;;
5133;SDS011;2585;48.696;10.066;2023-04-07T14:34:54;2.70;;;2.07;;
5133;SDS011;2585;48.696;10.066;2023-04-07T14:37:21;4.07;;;2.60;;
5133;SDS011;2585;48.696;10.066;2023-04-07T14:39:51;15.80;;;6.80;;
5133;SDS011;2585;48.696;10.066;2023-04-07T14:42:28;10.17;;;5.70;;
5133;SDS011;2585;48.696;10.066;2023-04-07T14:44:55;89.93;;;42.93;;
5133;SDS011;2585;48.696;10.066;2023-04-07T14:47:25;9.30;;;4.47;;
5133;SDS011;2585;48.696;10.066;2023-04-07T14:49:52;4.10;;;2.77;;
5133;SDS011;2585;48.696;10.066;2023-04-07T14:52:19;39.30;;;19.10;;
5133;SDS011;2585;48.696;10.066;2023-04-07T14:54:49;5.90;;;3.53;;
5133;SDS011;2585;48.696;10.066;2023-04-07T14:57:16;6.83;;;3.70;;
5133;SDS011;2585;48.696;10.066;2023-04-07T14:59:43;16.83;;;8.27;;
5133;SDS011;2585;48.696;10.066;2023-04-07T15:02:09;5.90;;;2.90;;
5133;SDS011;2585;48.696;10.066;2023-04-07T15:04:36;6.47;;;2.80;;
5133;SDS011;2585;48.696;10.066;2023-04-07T15:07:04;10.33;;;4.47;;
5133;SDS011;2585;48.696;10.066;2023-04-07T15:09:30;4.83;;;2.90;;
5133;SDS011;2585;48.696;10.066;2023-04-07T15:11:57;7.70;;;3.53;;
5133;SDS011;2585;48.696;10.066;2023-04-07T15:14:33;4.63;;;2.50;;
5133;SDS011;2585;48.696;10.066;2023-04-07T15:17:00;4.67;;;2.83;;
5133;SDS011;2585;48.696;10.066;2023-04-07T15:19:27;3.70;;;2.80;;
5133;SDS011;2585;48.696;10.066;2023-04-07T15:21:54;6.83;;;3.57;;